Middleton, WI (53562)

9:39 AM CST on December 09, 2016 (GMT -0600)
Sak's Woods, Middleton | | Change Station

Elev 948 ft 43.10 °N, 89.50 °W | Updated 11 seconds ago

Clear
Clear
21.2 °F
Feels Like 21 °F
N
3.0
Wind Variable Wind from West

Today
High -- | Low -- °F
--% Chance of Precip.
Yesterday
High -- | Low -- °F
Precip. -- in
Pressure 30.53 in
Visibility 10.0 miles
Clouds Clear
Windchill 21 °F
Dew Point 13 °F
Humidity 73%
Rainfall 0.00 in
Snow Depth Not available.
7:18 AM 4:22 PM
Waxing Gibbous, 75% visible
METAR KC29 091535Z AUTO 32011KT 10SM CLR M06/M10 A3053 RMK AO1 T10571104
Pressure 30.53 in
Visibility 10.0 miles
Clouds Clear
Windchill 21 °F
Dew Point 13 °F
Humidity 73%
Rainfall 0.00 in
Snow Depth Not available.
7:18 AM 4:22 PM
Waxing Gibbous, 75% visible
METAR KC29 091535Z AUTO 32011KT 10SM CLR M06/M10 A3053 RMK AO1 T10571104

10-Day Weather Forecast

Almanac

Astronomy

Dec. 09, 2016 Rise Set
Actual Time
Civil Twilight
Nautical Twilight
Astronomical Twilight
Moon
Length of Visible Light
Length of Day
Tomorrow will be .
, % of the Moon is Illuminated

Today's Extremes

State Highs State Lows

Community

WunderPhotos

Upload Photos

1,956,432 photos uploaded!

WunderBlog® & News

Nearby

Air Quality

  Air Quality AQ Index Pollutant
Not available.

Snow Depth

Station Depth Elevation

Earthquake Activity

City Distance Mag. Time & Date
Minimum magnitude displayed is 2.5.

Coastal Water Temperatures

Place Temperature

Stations

Nearby Weather Stations

Station Location Temp. Windchill Dew Point Humidity Wind Precip. Elev Updated Type
                   

Watches & Warnings

There are currently no watches in effect.